createdAt,value
2022-10-21T00:00:41.587Z,22.20
2022-10-21T00:03:09.473Z,23.97
2022-10-21T00:05:36.443Z,22.57
2022-10-21T00:08:03.618Z,24.03
2022-10-21T00:10:30.530Z,23.67
2022-10-21T00:12:57.523Z,22.47
2022-10-21T00:15:24.533Z,22.90
2022-10-21T00:17:51.464Z,23.17
2022-10-21T00:20:18.951Z,25.83
2022-10-21T00:22:46.083Z,25.13
2022-10-21T00:25:13.002Z,22.30
2022-10-21T00:27:40.367Z,27.70
2022-10-21T00:30:08.926Z,26.30
2022-10-21T00:32:36.224Z,28.10
2022-10-21T00:35:05.268Z,26.83
2022-10-21T00:37:33.376Z,26.40
2022-10-21T00:40:00.272Z,24.67
2022-10-21T00:42:43.790Z,30.63
2022-10-21T00:45:27.500Z,26.67
2022-10-21T00:48:00.946Z,26.20
2022-10-21T00:50:50.297Z,24.70
2022-10-21T00:53:18.468Z,28.77
2022-10-21T00:55:54.428Z,28.07
2022-10-21T00:58:25.664Z,25.10
2022-10-21T01:00:56.337Z,29.50
2022-10-21T01:03:26.139Z,37.90
2022-10-21T01:05:54.369Z,35.23
2022-10-21T01:08:21.345Z,29.70
2022-10-21T01:10:48.351Z,27.63
2022-10-21T01:13:52.499Z,28.23
2022-10-21T01:16:48.820Z,30.40
2022-10-21T01:19:58.090Z,28.73
2022-10-21T01:22:27.780Z,30.83
2022-10-21T01:24:59.922Z,30.47
2022-10-21T01:27:42.001Z,28.00
2022-10-21T01:30:16.629Z,29.13
2022-10-21T01:33:20.826Z,29.03
2022-10-21T01:35:50.505Z,27.10
2022-10-21T01:38:38.632Z,31.53
2022-10-21T01:41:21.038Z,28.57
2022-10-21T01:44:09.521Z,32.13
2022-10-21T01:46:52.700Z,27.03
2022-10-21T01:49:37.091Z,26.77
2022-10-21T01:52:04.943Z,29.67
2022-10-21T01:54:38.414Z,28.80
2022-10-21T01:57:08.118Z,26.90
2022-10-21T01:59:37.094Z,29.00
2022-10-21T02:02:06.892Z,32.50
2022-10-21T02:04:36.591Z,31.90
2022-10-21T02:07:03.654Z,29.47
2022-10-21T02:12:03.794Z,30.00
2022-10-21T02:14:52.250Z,31.17
2022-10-21T02:17:22.304Z,32.20
2022-10-21T02:19:49.613Z,31.03
2022-10-21T02:22:22.043Z,29.80
2022-10-21T02:25:31.903Z,25.77
2022-10-21T02:27:59.138Z,27.20
2022-10-21T02:30:27.458Z,26.80
2022-10-21T02:33:05.456Z,25.40
2022-10-21T02:35:46.413Z,24.17
2022-10-21T02:38:42.627Z,28.00
2022-10-21T02:41:13.646Z,30.87
2022-10-21T02:43:57.113Z,26.97
2022-10-21T02:46:25.101Z,31.30
2022-10-21T02:48:53.322Z,29.00
2022-10-21T02:51:20.544Z,31.60
2022-10-21T02:53:47.439Z,31.30
2022-10-21T02:56:14.492Z,31.80
2022-10-21T02:58:41.446Z,33.47
2022-10-21T03:01:08.421Z,24.27
2022-10-21T03:03:35.366Z,30.60
2022-10-21T03:06:02.314Z,28.10
2022-10-21T03:08:29.281Z,27.77
2022-10-21T03:10:56.590Z,25.90
2022-10-21T03:13:23.878Z,25.07
2022-10-21T03:15:51.432Z,27.83
2022-10-21T03:18:19.199Z,27.87
2022-10-21T03:20:50.324Z,29.63
2022-10-21T03:23:21.068Z,25.63
2022-10-21T03:25:48.254Z,28.57
2022-10-21T03:28:15.438Z,23.90
2022-10-21T03:30:42.414Z,29.00
2022-10-21T03:33:09.308Z,29.70
2022-10-21T03:35:36.294Z,25.83
2022-10-21T03:38:03.271Z,23.30
2022-10-21T03:40:30.549Z,27.17
2022-10-21T03:42:58.712Z,24.00
2022-10-21T03:45:26.513Z,22.57
2022-10-21T03:47:53.431Z,27.40
2022-10-21T03:50:23.642Z,28.83
2022-10-21T03:52:52.411Z,24.00
2022-10-21T03:55:20.905Z,24.30
2022-10-21T03:57:48.712Z,37.70
2022-10-21T04:00:16.633Z,25.70
2022-10-21T04:02:43.937Z,25.17
2022-10-21T04:05:11.251Z,24.70
2022-10-21T04:07:38.943Z,24.40
2022-10-21T04:10:07.436Z,27.65
2022-10-21T04:12:34.760Z,26.70
2022-10-21T04:15:01.784Z,23.93
2022-10-21T04:20:44.591Z,25.77
2022-10-21T04:23:11.605Z,26.60
2022-10-21T04:25:38.517Z,26.30
2022-10-21T04:28:05.463Z,27.90
2022-10-21T04:30:32.396Z,25.90
2022-10-21T04:32:59.387Z,26.00
2022-10-21T04:35:26.595Z,27.00
2022-10-21T04:37:53.702Z,27.67
2022-10-21T04:40:20.672Z,23.03
2022-10-21T04:42:49.529Z,32.93
2022-10-21T04:45:17.605Z,23.77
2022-10-21T04:47:44.738Z,24.30
2022-10-21T04:50:12.314Z,26.57
2022-10-21T04:52:39.822Z,26.43
2022-10-21T04:55:15.134Z,23.80
2022-10-21T04:57:42.761Z,25.50
2022-10-21T05:00:10.844Z,27.13
2022-10-21T05:02:38.063Z,27.03
2022-10-21T05:05:05.779Z,27.80
2022-10-21T05:07:32.756Z,24.50
2022-10-21T05:09:59.757Z,23.83
2022-10-21T05:12:26.675Z,27.00
2022-10-21T05:14:53.807Z,24.33
2022-10-21T05:17:21.031Z,26.80
2022-10-21T05:19:47.943Z,27.07
2022-10-21T05:22:15.063Z,29.10
2022-10-21T05:24:42.166Z,29.87
2022-10-21T05:27:09.197Z,26.87
2022-10-21T05:29:36.128Z,28.77
2022-10-21T05:32:03.150Z,27.33
2022-10-21T05:34:30.047Z,27.40
2022-10-21T05:36:57.096Z,23.93
2022-10-21T05:39:24.039Z,26.67
2022-10-21T05:41:50.992Z,26.53
2022-10-21T05:44:20.679Z,33.00
2022-10-21T05:46:47.818Z,23.80
2022-10-21T05:49:14.804Z,26.77
2022-10-21T05:51:41.975Z,27.47
2022-10-21T05:54:08.923Z,23.90
2022-10-21T05:56:35.930Z,30.23
2022-10-21T05:59:05.521Z,24.00
2022-10-21T06:01:36.286Z,25.40
2022-10-21T06:04:03.522Z,31.30
2022-10-21T06:06:30.540Z,28.60
2022-10-21T06:08:57.649Z,25.60
2022-10-21T06:11:24.953Z,25.03
2022-10-21T06:13:52.289Z,29.53
2022-10-21T06:16:19.283Z,29.90
2022-10-21T06:18:46.172Z,23.77
2022-10-21T06:21:13.180Z,26.03
2022-10-21T06:23:40.272Z,27.20
2022-10-21T06:26:13.871Z,28.67
2022-10-21T06:28:43.651Z,24.90
2022-10-21T06:31:18.246Z,26.53
2022-10-21T06:33:45.583Z,23.73
2022-10-21T06:36:12.564Z,26.23
2022-10-21T06:38:39.721Z,25.27
2022-10-21T06:41:13.103Z,25.80
2022-10-21T06:43:42.223Z,23.53
2022-10-21T06:46:12.971Z,22.20
2022-10-21T06:48:40.453Z,20.90
2022-10-21T06:51:17.637Z,22.50
2022-10-21T06:53:45.659Z,21.17
2022-10-21T06:56:18.425Z,24.50
2022-10-21T06:58:47.986Z,21.30
2022-10-21T07:01:47.982Z,25.80
2022-10-21T07:04:19.980Z,22.50
2022-10-21T07:06:47.130Z,25.80
2022-10-21T07:09:14.179Z,23.53
2022-10-21T07:11:41.214Z,22.80
2022-10-21T07:14:08.254Z,25.53
2022-10-21T07:16:36.870Z,24.00
2022-10-21T07:19:05.847Z,23.40
2022-10-21T07:21:33.087Z,29.90
2022-10-21T07:24:00.779Z,22.67
2022-10-21T07:26:31.495Z,23.07
2022-10-21T07:29:00.774Z,23.50
2022-10-21T07:31:31.838Z,19.93
2022-10-21T07:34:00.995Z,20.30
2022-10-21T07:36:31.777Z,22.40
2022-10-21T07:39:03.819Z,20.00
2022-10-21T07:41:44.668Z,19.03
2022-10-21T07:44:11.994Z,21.57
2022-10-21T07:46:40.833Z,18.23
2022-10-21T07:49:08.720Z,19.57
2022-10-21T07:51:35.677Z,19.03
2022-10-21T07:54:03.294Z,20.57
2022-10-21T07:56:37.398Z,22.27
2022-10-21T07:59:06.778Z,22.57
2022-10-21T08:01:36.363Z,20.30
2022-10-21T08:04:03.801Z,16.77
2022-10-21T08:06:30.769Z,22.03
2022-10-21T08:08:57.916Z,19.77
2022-10-21T08:11:31.863Z,18.73
2022-10-21T08:13:59.957Z,18.20
2022-10-21T08:16:27.523Z,19.70
2022-10-21T08:18:56.811Z,18.40
2022-10-21T08:21:23.723Z,16.70
2022-10-21T08:23:50.750Z,17.87
2022-10-21T08:26:17.810Z,17.33
2022-10-21T08:28:46.672Z,16.60
2022-10-21T08:31:19.596Z,16.07
2022-10-21T08:33:47.606Z,15.13
2022-10-21T08:36:25.968Z,16.50
2022-10-21T08:38:53.896Z,16.53
2022-10-21T08:41:29.705Z,15.20
2022-10-21T08:44:37.991Z,16.40
2022-10-21T08:47:17.548Z,17.70
2022-10-21T08:50:00.949Z,14.10
2022-10-21T08:52:39.235Z,13.93
2022-10-21T08:55:35.064Z,13.83
2022-10-21T08:58:03.508Z,13.17
2022-10-21T09:00:48.274Z,11.87
2022-10-21T09:03:15.187Z,12.63
2022-10-21T09:06:29.759Z,11.10
2022-10-21T09:09:11.960Z,13.07
2022-10-21T09:12:06.189Z,10.67
2022-10-21T09:15:30.042Z,10.47
2022-10-21T09:18:12.317Z,10.07
2022-10-21T09:21:06.662Z,9.33
2022-10-21T09:24:11.812Z,9.50
2022-10-21T09:26:44.891Z,8.80
2022-10-21T09:29:27.611Z,8.10
2022-10-21T09:32:15.470Z,8.37
2022-10-21T09:35:06.573Z,8.40
2022-10-21T09:37:40.161Z,8.17
2022-10-21T09:40:21.006Z,10.23
2022-10-21T09:42:56.046Z,7.93
2022-10-21T09:45:37.537Z,7.80
2022-10-21T09:48:19.942Z,9.27
2022-10-21T09:50:52.622Z,12.00
2022-10-21T09:53:28.684Z,8.40
2022-10-21T09:56:06.811Z,9.73
2022-10-21T09:58:42.249Z,8.20
2022-10-21T10:01:16.045Z,7.77
2022-10-21T10:03:49.968Z,9.20
2022-10-21T10:06:43.566Z,7.17
2022-10-21T10:09:29.381Z,6.50
2022-10-21T10:12:21.048Z,6.70
2022-10-21T10:14:48.741Z,6.43
2022-10-21T10:17:44.421Z,6.60
2022-10-21T10:20:20.600Z,6.47
2022-10-21T10:22:59.823Z,6.70
2022-10-21T10:25:35.758Z,5.40
2022-10-21T10:28:10.649Z,5.27
2022-10-21T10:30:43.529Z,6.20
2022-10-21T10:33:19.680Z,5.97
2022-10-21T10:36:05.605Z,10.43
2022-10-21T10:38:51.664Z,5.97
2022-10-21T10:41:19.290Z,5.73
2022-10-21T10:43:54.926Z,5.70
2022-10-21T10:46:34.066Z,8.07
2022-10-21T10:49:23.102Z,8.20
2022-10-21T10:52:30.421Z,5.72
2022-10-21T10:55:12.612Z,7.30
2022-10-21T10:57:58.559Z,5.23
2022-10-21T11:00:33.967Z,5.63
2022-10-21T11:03:07.902Z,5.70
2022-10-21T11:05:45.390Z,4.90
2022-10-21T11:08:23.435Z,6.50
2022-10-21T11:10:56.619Z,6.47
2022-10-21T11:13:25.122Z,6.90
2022-10-21T11:16:29.580Z,5.00
2022-10-21T11:19:15.242Z,10.50
2022-10-21T11:21:49.211Z,4.90
2022-10-21T11:24:45.532Z,4.87
2022-10-21T11:27:32.330Z,5.30
2022-10-21T11:30:19.681Z,7.43
2022-10-21T11:33:17.379Z,11.43
2022-10-21T11:36:40.283Z,6.27
2022-10-21T11:39:42.940Z,6.10
2022-10-21T11:42:23.154Z,6.77
2022-10-21T11:45:30.480Z,7.40
2022-10-21T11:48:40.241Z,5.03
2022-10-21T11:51:28.648Z,6.67
2022-10-21T11:54:37.353Z,8.93
2022-10-21T11:57:13.314Z,7.13
2022-10-21T12:00:04.923Z,6.60
2022-10-21T12:02:43.003Z,6.33
2022-10-21T12:05:44.612Z,6.63
2022-10-21T12:08:27.214Z,5.50
2022-10-21T12:11:06.067Z,5.70
2022-10-21T12:13:44.803Z,6.20
2022-10-21T12:16:27.531Z,7.63
2022-10-21T12:19:00.161Z,5.10
2022-10-21T12:21:34.773Z,5.63
2022-10-21T12:24:27.946Z,5.70
2022-10-21T12:27:19.601Z,8.43
2022-10-21T12:31:02.354Z,7.93
2022-10-21T12:33:45.559Z,6.00
2022-10-21T12:36:24.725Z,6.93
2022-10-21T12:38:57.737Z,8.47
2022-10-21T12:41:24.541Z,6.30
2022-10-21T12:44:01.810Z,5.97
2022-10-21T12:46:39.960Z,10.80
2022-10-21T12:49:30.529Z,7.93
2022-10-21T12:52:10.788Z,8.20
2022-10-21T12:54:43.628Z,8.83
2022-10-21T12:57:43.025Z,6.67
2022-10-21T13:00:27.111Z,5.60
2022-10-21T13:03:12.705Z,14.70
2022-10-21T13:05:39.591Z,8.83
2022-10-21T13:08:24.421Z,8.37
2022-10-21T13:11:03.937Z,7.90
2022-10-21T13:13:38.770Z,7.90
2022-10-21T13:16:20.796Z,7.23
2022-10-21T13:18:51.521Z,7.40
2022-10-21T13:21:29.455Z,5.20
2022-10-21T13:24:36.934Z,5.30
2022-10-21T13:30:00.787Z,6.77
2022-10-21T13:32:33.832Z,5.50
2022-10-21T13:35:20.855Z,5.80
2022-10-21T13:37:57.391Z,6.07
2022-10-21T13:40:31.856Z,6.50
2022-10-21T13:43:28.991Z,6.43
2022-10-21T13:46:32.879Z,6.67
2022-10-21T13:49:00.699Z,8.60
2022-10-21T13:51:35.761Z,7.83
2022-10-21T13:56:53.936Z,7.63
2022-10-21T13:59:34.615Z,8.30
2022-10-21T14:02:02.353Z,12.40
2022-10-21T14:04:42.560Z,8.90
2022-10-21T14:07:26.672Z,12.13
2022-10-21T14:09:58.671Z,6.67
2022-10-21T14:12:34.660Z,6.87
2022-10-21T14:15:39.051Z,7.40
2022-10-21T14:18:06.730Z,8.67
2022-10-21T14:20:37.246Z,7.17
2022-10-21T14:23:08.265Z,8.23
2022-10-21T14:25:35.667Z,8.43
2022-10-21T14:28:04.771Z,7.53
2022-10-21T14:30:36.774Z,7.80
2022-10-21T14:33:06.447Z,8.17
2022-10-21T14:35:33.494Z,7.93
2022-10-21T14:38:03.883Z,7.67
2022-10-21T14:40:36.611Z,9.97
2022-10-21T14:43:13.299Z,8.80
2022-10-21T14:45:50.521Z,8.20
2022-10-21T14:48:36.444Z,7.37
2022-10-21T14:51:21.220Z,8.10
2022-10-21T14:53:59.310Z,9.57
2022-10-21T14:56:34.268Z,7.83
2022-10-21T14:59:26.077Z,9.30
2022-10-21T15:01:53.281Z,9.33
2022-10-21T15:04:54.426Z,11.57
2022-10-21T15:07:33.895Z,8.00
2022-10-21T15:10:03.804Z,8.17
2022-10-21T15:12:53.908Z,7.63
2022-10-21T15:15:54.226Z,17.13
2022-10-21T15:18:47.730Z,9.57
2022-10-21T15:21:32.792Z,7.70
2022-10-21T15:24:00.744Z,8.10
2022-10-21T15:26:40.446Z,12.60
2022-10-21T15:29:13.873Z,8.37
2022-10-21T15:31:41.250Z,8.50
2022-10-21T15:34:15.958Z,7.33
2022-10-21T15:36:44.067Z,7.20
2022-10-21T15:39:11.888Z,7.17
2022-10-21T15:41:39.528Z,7.43
2022-10-21T15:44:28.917Z,8.20
2022-10-21T15:47:29.989Z,7.30
2022-10-21T15:49:57.149Z,6.70
2022-10-21T15:52:24.567Z,8.10
2022-10-21T15:54:57.220Z,6.53
2022-10-21T15:57:24.795Z,6.87
2022-10-21T15:59:53.094Z,7.03
2022-10-21T16:02:29.498Z,7.80
2022-10-21T16:04:56.500Z,6.60
2022-10-21T16:07:36.897Z,11.87
2022-10-21T16:10:29.346Z,13.03
2022-10-21T16:13:01.766Z,24.33
2022-10-21T16:15:29.925Z,29.97
2022-10-21T16:18:00.632Z,32.63
2022-10-21T16:20:35.564Z,29.37
2022-10-21T16:23:03.496Z,20.30
2022-10-21T16:25:34.151Z,8.40
2022-10-21T16:28:02.045Z,10.40
2022-10-21T16:30:36.789Z,17.57
2022-10-21T16:33:04.916Z,33.97
2022-10-21T16:35:31.870Z,10.93
2022-10-21T16:37:59.357Z,6.13
2022-10-21T16:40:31.556Z,5.80
2022-10-21T16:42:59.135Z,5.97
2022-10-21T16:45:32.091Z,5.23
2022-10-21T16:48:00.963Z,7.30
2022-10-21T16:50:46.049Z,5.47
2022-10-21T16:53:16.684Z,5.53
2022-10-21T16:55:43.964Z,7.47
2022-10-21T16:58:11.008Z,7.87
2022-10-21T17:00:38.105Z,8.17
2022-10-21T17:03:05.243Z,8.13
2022-10-21T17:05:32.195Z,7.72
2022-10-21T17:08:00.071Z,6.70
2022-10-21T17:10:31.873Z,8.80
2022-10-21T17:13:01.772Z,9.03
2022-10-21T17:15:37.072Z,7.10
2022-10-21T17:18:04.500Z,9.70
2022-10-21T17:20:34.886Z,7.53
2022-10-21T17:23:07.774Z,7.73
2022-10-21T17:25:38.133Z,6.57
2022-10-21T17:28:08.839Z,7.60
2022-10-21T17:30:36.127Z,8.43
2022-10-21T17:33:03.235Z,17.47
2022-10-21T17:35:30.276Z,13.50
2022-10-21T17:37:57.419Z,13.00
2022-10-21T17:40:27.356Z,10.83
2022-10-21T17:42:54.382Z,8.80
2022-10-21T17:45:22.463Z,10.77
2022-10-21T17:47:49.861Z,10.20
2022-10-21T17:50:23.172Z,9.93
2022-10-21T17:52:55.819Z,9.03
2022-10-21T17:55:23.455Z,10.30
2022-10-21T17:57:50.343Z,9.30
2022-10-21T18:00:17.518Z,10.27
2022-10-21T18:02:44.430Z,11.60
2022-10-21T18:05:11.521Z,11.53
2022-10-21T18:07:38.789Z,15.80
2022-10-21T18:10:07.198Z,11.80
2022-10-21T18:12:35.408Z,12.40
2022-10-21T18:15:02.870Z,13.43
2022-10-21T18:17:29.810Z,11.50
2022-10-21T18:19:56.797Z,11.57
2022-10-21T18:22:24.121Z,12.20
2022-10-21T18:24:52.718Z,12.37
2022-10-21T18:27:19.987Z,16.70
2022-10-21T18:29:47.133Z,19.57
2022-10-21T18:32:15.848Z,19.07
2022-10-21T18:34:42.931Z,20.00
2022-10-21T18:37:10.128Z,19.10
2022-10-21T18:39:37.112Z,18.40
2022-10-21T18:42:04.127Z,32.53
2022-10-21T18:44:31.101Z,26.47
2022-10-21T18:46:57.999Z,20.57
2022-10-21T18:49:25.066Z,13.70
2022-10-21T18:51:52.025Z,13.00
2022-10-21T18:54:19.016Z,12.03
2022-10-21T18:56:45.901Z,87.90
2022-10-21T18:59:14.339Z,149.27
2022-10-21T19:01:41.424Z,26.13
2022-10-21T19:04:09.059Z,46.57
2022-10-21T19:06:46.110Z,18.73
2022-10-21T19:09:22.634Z,19.63
2022-10-21T19:11:50.123Z,10.73
2022-10-21T19:14:17.583Z,16.60
2022-10-21T19:16:46.903Z,39.60
2022-10-21T19:19:15.603Z,15.83
2022-10-21T19:21:42.729Z,27.30
2022-10-21T19:24:10.519Z,12.60
2022-10-21T19:26:40.444Z,29.87
2022-10-21T19:29:17.741Z,20.73
2022-10-21T19:34:21.056Z,32.07
2022-10-21T19:36:48.611Z,13.57
2022-10-21T19:39:16.268Z,9.17
2022-10-21T19:41:43.334Z,26.30
2022-10-21T19:44:10.290Z,11.20
2022-10-21T19:46:37.560Z,15.40
2022-10-21T19:49:07.830Z,14.83
2022-10-21T19:51:35.634Z,10.77
2022-10-21T19:54:08.157Z,11.60
2022-10-21T19:56:35.755Z,26.10
2022-10-21T19:59:03.446Z,37.10
2022-10-21T20:01:33.059Z,18.80
2022-10-21T20:04:01.929Z,14.67
2022-10-21T20:06:35.254Z,14.67
2022-10-21T20:09:12.234Z,17.60
2022-10-21T20:11:40.866Z,9.77
2022-10-21T20:14:08.214Z,19.47
2022-10-21T20:16:43.643Z,8.60
2022-10-21T20:19:12.370Z,19.43
2022-10-21T20:21:39.896Z,15.00
2022-10-21T20:24:07.724Z,18.40
2022-10-21T20:26:34.729Z,25.63
2022-10-21T20:29:02.274Z,15.30
2022-10-21T20:31:30.388Z,24.60
2022-10-21T20:33:57.587Z,39.20
2022-10-21T20:36:28.475Z,105.00
2022-10-21T20:38:59.103Z,21.30
2022-10-21T20:41:33.491Z,8.80
2022-10-21T20:44:01.794Z,7.53
2022-10-21T20:46:32.384Z,7.03
2022-10-21T20:48:59.385Z,10.03
2022-10-21T20:51:29.433Z,7.67
2022-10-21T20:54:06.895Z,13.43
2022-10-21T20:56:39.779Z,8.10
2022-10-21T20:59:10.005Z,8.30
2022-10-21T21:01:41.767Z,8.47
2022-10-21T21:04:13.267Z,8.10
2022-10-21T21:06:44.626Z,7.40
2022-10-21T21:12:03.248Z,8.10
2022-10-21T21:14:30.994Z,8.67
2022-10-21T21:16:58.318Z,8.40
2022-10-21T21:19:25.926Z,7.60
2022-10-21T21:21:58.307Z,8.87
2022-10-21T21:24:25.309Z,8.03
2022-10-21T21:26:52.212Z,8.80
2022-10-21T21:29:21.418Z,9.53
2022-10-21T21:31:48.746Z,9.00
2022-10-21T21:34:15.750Z,8.40
2022-10-21T21:36:42.719Z,9.40
2022-10-21T21:39:11.490Z,8.90
2022-10-21T21:41:38.593Z,9.20
2022-10-21T21:44:06.227Z,8.63
2022-10-21T21:46:35.798Z,8.87
2022-10-21T21:49:06.441Z,8.03
2022-10-21T21:51:39.192Z,8.70
2022-10-21T21:54:07.983Z,7.50
2022-10-21T21:56:35.610Z,8.23
2022-10-21T21:59:02.971Z,7.90
2022-10-21T22:01:30.237Z,7.33
2022-10-21T22:03:57.796Z,7.40
2022-10-21T22:06:29.157Z,7.43
2022-10-21T22:08:56.622Z,7.57
2022-10-21T22:11:26.875Z,7.90
2022-10-21T22:13:53.936Z,8.60
2022-10-21T22:16:24.123Z,8.53
2022-10-21T22:18:51.416Z,11.37
2022-10-21T22:21:18.980Z,8.60
2022-10-21T22:23:47.639Z,8.27
2022-10-21T22:26:16.038Z,8.60
2022-10-21T22:28:44.155Z,7.73
2022-10-21T22:31:15.148Z,8.83
2022-10-21T22:36:11.295Z,9.60
2022-10-21T22:38:38.239Z,8.40
2022-10-21T22:41:09.825Z,8.00
2022-10-21T22:43:39.148Z,7.37
2022-10-21T22:48:53.096Z,8.60
2022-10-21T22:51:20.811Z,7.60
2022-10-21T22:53:53.481Z,8.70
2022-10-21T22:56:24.549Z,9.73
2022-10-21T22:58:51.649Z,8.53
2022-10-21T23:01:18.795Z,8.47
2022-10-21T23:03:45.767Z,8.27
2022-10-21T23:06:12.707Z,9.00
2022-10-21T23:08:39.713Z,8.00
2022-10-21T23:11:06.852Z,8.17
2022-10-21T23:13:33.749Z,8.70
2022-10-21T23:16:00.770Z,8.10
2022-10-21T23:18:28.020Z,9.73
2022-10-21T23:20:55.023Z,9.30
2022-10-21T23:23:22.151Z,11.47
2022-10-21T23:25:49.299Z,12.07
2022-10-21T23:30:44.314Z,10.13
2022-10-21T23:33:11.371Z,8.97
2022-10-21T23:35:38.343Z,9.07
2022-10-21T23:38:05.551Z,7.53
2022-10-21T23:40:32.813Z,8.10
2022-10-21T23:42:59.691Z,5.73
2022-10-21T23:45:26.731Z,5.37
2022-10-21T23:47:56.585Z,7.30
2022-10-21T23:50:24.180Z,7.60
2022-10-21T23:52:51.087Z,7.27
2022-10-21T23:55:18.801Z,7.07
2022-10-21T23:57:46.009Z,7.20
